Time;durP1;ratioP1;P1;durP2;ratioP2;P2;SDS_P1;SDS_P2;PMS_P1;PMS_P2;Temp;Humidity;BMP_temperature;BMP_pressure;BME280_temperature;BME280_humidity;BME280_pressure;Samples;Min_cycle;Max_cycle;Signal;HPM_P1;HPM_P2
2023/01/28 00:00:32;;;;;;;5.50;4.50;;;;;;;0.87;100.00;101516.53;4984321;28;20468;-85
2023/01/28 00:02:59;;;;;;;4.40;3.80;;;;;;;0.83;100.00;101510.47;4980637;28;20492;-85
2023/01/28 00:05:26;;;;;;;3.93;3.53;;;;;;;0.72;100.00;101510.81;4980853;28;20524;-82
2023/01/28 00:07:54;;;;;;;5.33;4.00;;;;;;;0.86;100.00;101509.53;4984568;28;20468;-83
2023/01/28 00:10:20;;;;;;;5.23;4.40;;;;;;;0.70;100.00;101517.91;4978382;28;20445;-88
2023/01/28 00:12:47;;;;;;;3.80;3.50;;;;;;;0.59;100.00;101511.22;4972538;28;20480;-86
2023/01/28 00:15:20;;;;;;;3.87;3.47;;;;;;;0.58;100.00;101514.78;4983267;28;20448;-84
2023/01/28 00:17:46;;;;;;;4.90;4.50;;;;;;;0.80;100.00;101510.59;4984116;28;20437;-84
2023/01/28 00:20:13;;;;;;;4.00;3.70;;;;;;;0.69;100.00;101518.81;4983467;28;20987;-84
2023/01/28 00:22:40;;;;;;;4.73;3.93;;;;;;;0.81;100.00;101512.31;4983830;28;20486;-85
2023/01/28 00:25:08;;;;;;;4.77;4.27;;;;;;;0.86;100.00;101510.41;4980969;28;20519;-83
2023/01/28 00:27:35;;;;;;;4.57;4.07;;;;;;;0.77;100.00;101509.84;4983617;28;20448;-84
2023/01/28 00:30:02;;;;;;;4.80;4.33;;;;;;;0.62;100.00;101513.78;4983481;28;20449;-84
2023/01/28 00:32:29;;;;;;;4.83;4.40;;;;;;;0.58;100.00;101513.00;4981041;28;20491;-83
2023/01/28 00:34:56;;;;;;;4.80;4.33;;;;;;;0.66;100.00;101510.13;4981827;28;20464;-85
2023/01/28 00:37:22;;;;;;;5.20;4.73;;;;;;;0.93;100.00;101511.06;4984771;28;20516;-84
2023/01/28 00:39:49;;;;;;;5.90;4.17;;;;;;;0.87;100.00;101511.28;4976074;28;20457;-84
2023/01/28 00:42:17;;;;;;;5.00;4.07;;;;;;;0.70;100.00;101517.91;4984663;28;20481;-84
2023/01/28 00:44:45;;;;;;;4.80;4.40;;;;;;;0.58;100.00;101522.69;4984698;28;20523;-85
2023/01/28 00:47:11;;;;;;;4.93;4.63;;;;;;;0.85;100.00;101520.97;4984986;28;20511;-84
2023/01/28 00:49:38;;;;;;;5.63;5.00;;;;;;;1.03;100.00;101516.94;4976317;28;20484;-84
2023/01/28 00:52:05;;;;;;;4.60;4.20;;;;;;;0.67;100.00;101518.00;4985130;28;20485;-83
2023/01/28 00:54:32;;;;;;;3.90;3.63;;;;;;;0.56;100.00;101525.34;4984901;28;20469;-84
2023/01/28 00:56:58;;;;;;;3.63;3.43;;;;;;;0.77;100.00;101515.09;4984907;28;20556;-84
2023/01/28 00:59:26;;;;;;;4.27;3.97;;;;;;;0.74;100.00;101509.00;4980973;28;20617;-84
2023/01/28 01:01:53;;;;;;;4.27;3.87;;;;;;;0.60;100.00;101518.22;4984058;28;20929;-84
2023/01/28 01:04:25;;;;;;;4.30;3.83;;;;;;;0.62;100.00;101514.63;4983266;28;20461;-85
2023/01/28 01:06:52;;;;;;;3.97;3.70;;;;;;;0.45;100.00;101512.53;4983777;28;20485;-84
2023/01/28 01:09:18;;;;;;;4.10;3.77;;;;;;;0.59;100.00;101517.38;4984896;28;20477;-85
2023/01/28 01:11:45;;;;;;;5.97;3.83;;;;;;;0.45;100.00;101515.16;4984614;28;20583;-85
2023/01/28 01:14:12;;;;;;;4.30;3.90;;;;;;;0.72;100.00;101508.19;4985090;28;21262;-84
2023/01/28 01:16:40;;;;;;;3.97;3.67;;;;;;;0.84;100.00;101514.00;4984217;28;21012;-86
2023/01/28 01:19:07;;;;;;;4.00;3.57;;;;;;;0.68;100.00;101514.47;4985139;28;20453;-84
2023/01/28 01:21:34;;;;;;;3.73;3.43;;;;;;;0.54;100.00;101506.97;4983811;28;20511;-84
2023/01/28 01:24:01;;;;;;;4.93;4.53;;;;;;;0.82;100.00;101508.78;4985141;28;20481;-83
2023/01/28 01:26:28;;;;;;;4.57;4.07;;;;;;;0.73;100.00;101502.03;4983356;28;20560;-82
2023/01/28 01:28:55;;;;;;;5.63;4.53;;;;;;;0.71;100.00;101510.88;4977026;28;20485;-84
2023/01/28 01:31:22;;;;;;;5.40;4.43;;;;;;;0.69;100.00;101512.69;4984430;28;20551;-84
2023/01/28 01:33:51;;;;;;;4.03;3.73;;;;;;;0.65;100.00;101519.81;4984607;28;20442;-83
2023/01/28 01:36:20;;;;;;;5.00;4.60;;;;;;;0.71;100.00;101517.00;4979388;28;20508;-84
2023/01/28 01:38:47;;;;;;;4.73;4.37;;;;;;;0.77;100.00;101517.75;4985292;28;20473;-85
2023/01/28 01:41:23;;;;;;;4.97;4.33;;;;;;;0.80;100.00;101509.72;4977668;28;20472;-86
2023/01/28 01:43:52;;;;;;;5.10;4.60;;;;;;;0.68;100.00;101516.25;4984383;28;20460;-86
2023/01/28 01:46:21;;;;;;;4.80;4.30;;;;;;;0.83;100.00;101505.22;4981400;28;20489;-85
2023/01/28 01:48:50;;;;;;;4.53;4.10;;;;;;;0.90;100.00;101505.91;4983704;28;20473;-86
2023/01/28 01:51:20;;;;;;;4.23;3.90;;;;;;;1.17;100.00;101516.50;4983738;28;20980;-86
2023/01/28 01:53:49;;;;;;;5.00;4.60;;;;;;;0.75;100.00;101512.50;4978137;28;20449;-85
2023/01/28 01:56:18;;;;;;;4.97;4.53;;;;;;;0.62;100.00;101525.16;4983352;28;20524;-85
2023/01/28 01:58:47;;;;;;;4.33;3.90;;;;;;;0.51;100.00;101516.75;4978761;28;20496;-86
2023/01/28 02:01:14;;;;;;;5.10;4.30;;;;;;;0.57;100.00;101513.91;4984216;28;20473;-85
2023/01/28 02:03:44;;;;;;;4.77;4.17;;;;;;;0.72;100.00;101520.50;4983112;28;20481;-83
2023/01/28 02:06:12;;;;;;;6.17;4.40;;;;;;;0.93;100.00;101521.59;4975974;28;20484;-85
2023/01/28 02:08:39;;;;;;;4.20;3.80;;;;;;;0.82;100.00;101518.47;4984587;28;20460;-84
2023/01/28 02:11:07;;;;;;;3.60;3.40;;;;;;;0.99;100.00;101525.81;4982708;28;20512;-84
2023/01/28 02:13:36;;;;;;;6.17;4.13;;;;;;;0.81;100.00;101527.25;4983986;28;20465;-84
2023/01/28 02:16:05;;;;;;;4.60;4.20;;;;;;;0.97;100.00;101531.13;4983142;28;20500;-84
2023/01/28 02:18:32;;;;;;;4.50;4.10;;;;;;;1.01;100.00;101532.78;4984491;28;20481;-85
2023/01/28 02:21:24;;;;;;;4.83;4.47;;;;;;;0.94;100.00;101533.88;4980646;28;20480;-85
2023/01/28 02:24:03;;;;;;;5.07;4.67;;;;;;;0.46;100.00;101537.91;4984086;28;20491;-84
2023/01/28 02:26:47;;;;;;;5.20;4.70;;;;;;;0.77;100.00;101541.44;4983052;28;20504;-84
2023/01/28 02:29:19;;;;;;;5.10;4.57;;;;;;;0.81;100.00;101545.69;4983125;28;20456;-86
2023/01/28 02:31:51;;;;;;;4.97;4.53;;;;;;;0.84;100.00;101543.81;4982527;28;20503;-85
2023/01/28 02:34:20;;;;;;;6.20;5.70;;;;;;;1.14;100.00;101541.13;4976942;28;20464;-83
2023/01/28 02:36:49;;;;;;;5.60;5.17;;;;;;;0.73;100.00;101544.16;4982804;28;20485;-83
2023/01/28 02:39:20;;;;;;;7.00;6.30;;;;;;;0.72;100.00;101541.56;4984180;28;20448;-83
2023/01/28 02:41:50;;;;;;;8.03;5.20;;;;;;;0.68;100.00;101527.63;4969706;28;20508;-83
2023/01/28 02:44:18;;;;;;;5.17;4.77;;;;;;;0.67;100.00;101536.41;4979986;28;20476;-83
2023/01/28 02:49:39;;;;;;;5.33;4.83;;;;;;;0.69;100.00;101525.84;4983248;28;20439;-84
2023/01/28 02:52:18;;;;;;;5.10;4.60;;;;;;;0.59;100.00;101529.66;4982490;28;20512;-84
2023/01/28 02:54:52;;;;;;;4.47;4.17;;;;;;;0.75;100.00;101533.56;4982354;28;20491;-85
2023/01/28 02:57:34;;;;;;;5.13;4.70;;;;;;;1.02;100.00;101523.94;4967286;28;20572;-83
2023/01/28 03:00:09;;;;;;;4.90;4.50;;;;;;;0.77;100.00;101520.38;4983199;28;20485;-84
2023/01/28 03:02:38;;;;;;;5.73;4.60;;;;;;;0.80;100.00;101520.25;4965325;28;20533;-84
2023/01/28 03:05:07;;;;;;;4.97;4.57;;;;;;;0.69;99.92;101526.69;4968462;28;20467;-84
2023/01/28 03:07:35;;;;;;;5.27;4.87;;;;;;;0.74;100.00;101523.94;4988447;28;20493;-84
2023/01/28 03:10:05;;;;;;;5.33;4.83;;;;;;;0.69;100.00;101526.69;4998862;28;20440;-84
2023/01/28 03:37:32;;;;;;;4.90;4.40;;;;;;;1.02;100.00;101512.56;4992757;28;20541;-85
2023/01/28 03:40:03;;;;;;;5.70;5.20;;;;;;;0.66;99.46;101507.50;5002108;28;20502;-85
2023/01/28 03:42:31;;;;;;;6.57;5.27;;;;;;;0.63;99.83;101510.25;5001752;28;20503;-85
2023/01/28 03:44:57;;;;;;;4.80;4.50;;;;;;;0.82;99.54;101521.09;5000629;28;20468;-84
2023/01/28 03:47:27;;;;;;;4.97;4.57;;;;;;;0.82;98.79;101529.84;4982891;28;20517;-84
2023/01/28 03:49:55;;;;;;;6.40;5.03;;;;;;;0.88;99.89;101528.78;5001936;28;20453;-84
2023/01/28 03:52:23;;;;;;;5.00;4.60;;;;;;;0.77;99.53;101517.75;5001518;28;20544;-84
2023/01/28 03:54:51;;;;;;;5.13;4.73;;;;;;;0.66;99.68;101524.19;5002223;28;20530;-84
2023/01/28 03:57:20;;;;;;;6.40;4.50;;;;;;;0.61;99.40;101520.81;5001314;28;20476;-84
2023/01/28 03:59:48;;;;;;;6.07;5.53;;;;;;;0.72;99.68;101523.97;5001427;28;20558;-84
2023/01/28 04:02:15;;;;;;;5.50;5.00;;;;;;;0.90;99.98;101519.06;4995749;28;20492;-84
2023/01/28 04:04:43;;;;;;;5.50;5.10;;;;;;;0.99;99.21;101516.16;5001029;28;20436;-84
2023/01/28 04:07:13;;;;;;;5.10;4.70;;;;;;;1.14;100.00;101520.06;5001535;28;20511;-85
2023/01/28 04:09:40;;;;;;;5.80;5.33;;;;;;;0.96;99.16;101520.66;5002468;28;20459;-85
2023/01/28 04:12:07;;;;;;;5.60;4.80;;;;;;;0.68;99.25;101524.13;4992495;28;20480;-84
2023/01/28 04:14:33;;;;;;;7.20;4.97;;;;;;;0.74;100.00;101527.44;5005328;28;20479;-83
2023/01/28 04:17:00;;;;;;;5.80;5.37;;;;;;;1.04;98.31;101534.44;5003053;28;20504;-84
2023/01/28 04:19:27;;;;;;;7.37;5.80;;;;;;;1.09;97.60;101532.53;5005559;28;20468;-83
2023/01/28 04:21:55;;;;;;;6.20;5.40;;;;;;;1.18;97.17;101534.88;4990337;28;20499;-83
2023/01/28 04:24:22;;;;;;;8.23;5.40;;;;;;;1.17;96.71;101535.78;5000552;28;20539;-84
2023/01/28 04:26:49;;;;;;;4.80;4.30;;;;;;;0.85;95.13;101544.66;5004336;28;20571;-83
2023/01/28 04:29:16;;;;;;;4.83;4.33;;;;;;;0.94;94.66;101550.53;5004840;28;20535;-82
2023/01/28 04:31:42;;;;;;;5.27;4.60;;;;;;;1.10;95.33;101544.78;5001671;28;20607;-83
2023/01/28 04:34:09;;;;;;;5.33;4.70;;;;;;;1.06;95.58;101546.66;5004922;28;20955;-84
2023/01/28 04:36:35;;;;;;;5.47;4.90;;;;;;;0.77;97.20;101552.81;5000314;28;20563;-84
2023/01/28 04:39:04;;;;;;;5.30;4.90;;;;;;;0.75;99.88;101552.84;4997282;28;20572;-84
2023/01/28 04:41:31;;;;;;;6.50;5.40;;;;;;;0.49;100.00;101560.66;4993138;28;20523;-83
2023/01/28 04:43:57;;;;;;;5.90;5.40;;;;;;;0.24;99.71;101560.47;5006578;28;21028;-83
2023/01/28 04:46:24;;;;;;;5.53;5.03;;;;;;;0.29;98.52;101553.31;4993545;28;20511;-82
2023/01/28 04:48:50;;;;;;;5.40;4.90;;;;;;;0.25;99.65;101556.94;5005175;28;20470;-83
2023/01/28 04:51:17;;;;;;;5.53;5.03;;;;;;;0.22;99.79;101549.97;5005898;28;20479;-83
2023/01/28 04:53:44;;;;;;;5.63;5.10;;;;;;;0.18;100.00;101543.09;5005292;28;20463;-83
2023/01/28 04:56:12;;;;;;;6.30;5.50;;;;;;;0.39;100.00;101546.88;5004347;28;20480;-82
2023/01/28 04:58:38;;;;;;;5.43;4.97;;;;;;;0.44;100.00;101555.50;4991471;28;20515;-82
2023/01/28 05:01:05;;;;;;;6.77;5.30;;;;;;;0.16;100.00;101555.44;4992369;28;20567;-82
2023/01/28 05:03:31;;;;;;;6.20;5.70;;;;;;;0.32;96.71;101553.22;5004641;28;20459;-82
2023/01/28 05:05:58;;;;;;;5.70;5.20;;;;;;;0.36;95.47;101549.59;5004207;28;20484;-82
2023/01/28 05:08:25;;;;;;;5.50;5.00;;;;;;;0.37;95.98;101538.19;5005209;28;20476;-83
2023/01/28 05:10:51;;;;;;;6.47;5.40;;;;;;;0.64;95.34;101541.75;4994199;28;20516;-83
2023/01/28 05:13:19;;;;;;;6.90;6.23;;;;;;;0.46;95.29;101537.06;5001869;28;20460;-83
2023/01/28 05:15:51;;;;;;;7.00;5.67;;;;;;;0.25;97.18;101533.28;5003703;28;20542;-83
2023/01/28 05:18:17;;;;;;;5.20;4.70;;;;;;;0.09;97.28;101544.22;5004919;28;20975;-83
2023/01/28 05:20:44;;;;;;;5.90;5.40;;;;;;;0.13;98.59;101537.94;5003783;28;20494;-84
2023/01/28 05:23:11;;;;;;;9.30;5.27;;;;;;;0.27;98.91;101542.81;5004485;28;20452;-82
2023/01/28 05:25:37;;;;;;;6.27;5.47;;;;;;;0.53;99.80;101544.72;4997242;28;20497;-79
2023/01/28 05:28:04;;;;;;;6.57;6.07;;;;;;;0.74;99.89;101553.75;4987423;28;20463;-79
2023/01/28 05:30:32;;;;;;;9.43;5.83;;;;;;;0.86;97.18;101552.53;5004110;28;20499;-79
2023/01/28 05:32:59;;;;;;;6.83;6.13;;;;;;;0.50;97.34;101546.56;5000998;28;20822;-79
2023/01/28 05:35:26;;;;;;;6.23;5.60;;;;;;;0.46;98.87;101558.09;5002918;28;20452;-79
2023/01/28 05:37:52;;;;;;;6.43;4.80;;;;;;;0.54;98.02;101549.09;5002204;28;20473;-78
2023/01/28 05:40:19;;;;;;;6.60;5.80;;;;;;;0.44;98.11;101554.66;5003784;28;20467;-79
2023/01/28 05:42:46;;;;;;;9.90;5.67;;;;;;;0.32;98.33;101571.66;5001897;28;20463;-79
2023/01/28 05:45:12;;;;;;;5.87;4.67;;;;;;;0.51;98.71;101561.47;5003546;28;20484;-80
2023/01/28 05:47:40;;;;;;;5.13;4.57;;;;;;;0.22;97.79;101563.13;5003722;28;20476;-79
2023/01/28 05:50:13;;;;;;;6.07;5.57;;;;;;;0.49;95.19;101552.75;5002785;28;20447;-79
2023/01/28 05:52:39;;;;;;;5.00;4.70;;;;;;;0.59;94.74;101561.22;5003010;28;20491;-79
2023/01/28 05:55:07;;;;;;;7.10;4.97;;;;;;;0.79;94.88;101558.88;4984317;28;20518;-79
2023/01/28 05:57:33;;;;;;;5.10;4.70;;;;;;;0.52;95.06;101553.53;4989254;28;20814;-79
2023/01/28 06:00:00;;;;;;;6.57;5.00;;;;;;;0.71;95.67;101552.97;5003889;28;20512;-80
2023/01/28 06:02:27;;;;;;;8.10;5.00;;;;;;;0.80;95.86;101551.84;5002393;28;20480;-79
2023/01/28 06:04:55;;;;;;;6.43;5.43;;;;;;;0.91;95.41;101555.03;4987182;28;20476;-79
2023/01/28 06:07:22;;;;;;;9.50;5.17;;;;;;;0.64;95.30;101554.91;5002849;28;20509;-79
2023/01/28 06:09:49;;;;;;;5.97;5.47;;;;;;;0.21;97.11;101547.41;5002969;28;20483;-78
2023/01/28 06:12:16;;;;;;;6.00;5.50;;;;;;;-0.06;95.82;101553.34;5002648;28;20579;-78
2023/01/28 06:14:42;;;;;;;6.97;5.50;;;;;;;0.01;94.80;101551.44;5002957;28;20491;-79
2023/01/28 06:17:09;;;;;;;5.70;5.20;;;;;;;0.10;94.70;101550.31;5002900;28;20515;-78
2023/01/28 06:19:36;;;;;;;5.63;5.10;;;;;;;0.09;95.83;101552.09;5003059;28;20483;-78
2023/01/28 06:22:04;;;;;;;6.37;5.20;;;;;;;0.28;97.49;101559.47;5002710;28;20559;-79
2023/01/28 06:24:30;;;;;;;5.60;5.20;;;;;;;0.30;97.13;101565.56;5003129;28;20460;-79
2023/01/28 06:26:57;;;;;;;5.90;5.30;;;;;;;0.45;96.42;101561.63;5002705;28;20579;-79
2023/01/28 06:29:24;;;;;;;6.87;5.27;;;;;;;0.61;95.46;101562.03;4999990;28;20472;-81
2023/01/28 06:31:51;;;;;;;5.67;5.07;;;;;;;0.34;96.05;101560.16;5014785;28;20495;-80
2023/01/28 06:34:17;;;;;;;6.73;5.53;;;;;;;-0.04;95.97;101571.72;5023432;28;20431;-80
2023/01/28 06:36:44;;;;;;;5.13;4.63;;;;;;;0.11;94.66;101570.47;4991082;28;20508;-80
2023/01/28 06:39:12;;;;;;;5.80;4.97;;;;;;;0.36;95.09;101560.13;5003215;28;20466;-80
2023/01/28 06:41:38;;;;;;;5.87;5.37;;;;;;;0.32;93.32;101563.75;4993405;28;20480;-80
2023/01/28 06:44:05;;;;;;;5.70;5.20;;;;;;;0.28;93.97;101557.72;5002286;28;21179;-81
2023/01/28 06:46:32;;;;;;;6.60;5.93;;;;;;;0.55;95.86;101555.19;4998585;28;20485;-86
2023/01/28 06:48:59;;;;;;;8.93;5.57;;;;;;;0.62;94.91;101556.75;4990956;28;20440;-85
2023/01/28 06:51:25;;;;;;;5.50;5.10;;;;;;;0.37;94.17;101548.72;5001073;28;20518;-85
2023/01/28 06:53:52;;;;;;;5.53;5.00;;;;;;;0.02;95.36;101552.28;5001948;28;20495;-85
2023/01/28 06:56:21;;;;;;;6.73;6.03;;;;;;;-0.09;96.48;101556.06;5001701;28;20542;-85
2023/01/28 06:58:48;;;;;;;26.50;20.13;;;;;;;-0.10;96.72;101545.63;5001098;28;20536;-85
2023/01/28 07:01:14;;;;;;;6.27;5.33;;;;;;;-0.03;94.76;101552.44;4999696;28;20483;-84
2023/01/28 07:03:41;;;;;;;7.70;6.13;;;;;;;0.12;94.03;101559.03;5003673;28;20496;-83
2023/01/28 07:06:08;;;;;;;6.47;5.73;;;;;;;-0.12;94.95;101555.28;4997912;28;20510;-83
2023/01/28 07:08:36;;;;;;;9.70;5.97;;;;;;;-0.05;94.13;101564.75;4988049;28;20834;-82
2023/01/28 07:11:03;;;;;;;10.53;8.10;;;;;;;0.12;93.34;101570.44;4992625;28;20488;-83
2023/01/28 07:13:31;;;;;;;6.77;5.60;;;;;;;0.22;92.96;101567.53;4996497;28;21052;-83
2023/01/28 07:15:58;;;;;;;4.87;4.37;;;;;;;0.33;92.43;101579.50;4995247;28;21116;-83
2023/01/28 07:18:25;;;;;;;7.57;6.60;;;;;;;0.48;92.63;101572.94;4997560;28;20463;-83
2023/01/28 07:20:51;;;;;;;8.80;5.00;;;;;;;0.45;92.59;101566.91;4992450;28;20492;-83
2023/01/28 07:23:18;;;;;;;6.30;5.70;;;;;;;0.47;92.65;101572.97;4996405;28;20488;-83
2023/01/28 07:25:45;;;;;;;5.53;5.03;;;;;;;0.69;93.37;101574.06;4995213;28;20578;-84
2023/01/28 07:28:11;;;;;;;6.10;5.60;;;;;;;0.77;93.54;101570.38;4995696;28;20492;-84
2023/01/28 07:30:39;;;;;;;8.77;5.40;;;;;;;0.82;93.61;101565.84;4997462;28;20485;-88
2023/01/28 07:33:06;;;;;;;7.20;5.83;;;;;;;0.86;93.12;101568.31;4998170;28;20825;-84
2023/01/28 07:35:34;;;;;;;6.83;5.20;;;;;;;0.76;92.88;101572.13;4999946;28;20503;-85
2023/01/28 07:38:01;;;;;;;6.13;5.50;;;;;;;0.49;92.45;101586.97;4991644;28;20467;-85
2023/01/28 07:40:28;;;;;;;6.40;5.90;;;;;;;0.47;92.54;101575.59;4995428;28;20495;-84
2023/01/28 07:42:55;;;;;;;8.73;5.60;;;;;;;0.76;93.25;101582.66;4994348;28;20487;-84
2023/01/28 07:45:23;;;;;;;9.77;6.17;;;;;;;0.68;93.29;101579.41;4995118;28;20452;-84
2023/01/28 07:47:58;;;;;;;7.50;6.90;;;;;;;0.86;93.58;101585.91;4996313;28;20593;-85
2023/01/28 07:50:25;;;;;;;8.10;6.50;;;;;;;0.68;92.41;101572.38;5001945;28;21532;-84
2023/01/28 07:52:52;;;;;;;5.83;5.33;;;;;;;0.89;94.07;101585.81;4999822;28;20456;-84
2023/01/28 07:55:18;;;;;;;6.20;5.60;;;;;;;1.01;94.85;101579.28;4999619;28;20448;-83
2023/01/28 07:57:53;;;;;;;6.00;5.37;;;;;;;0.78;92.18;101578.22;4997170;28;20445;-84
2023/01/28 08:00:20;;;;;;;12.03;6.97;;;;;;;0.46;92.44;101584.41;5001692;28;20452;-84
2023/01/28 08:02:47;;;;;;;8.07;6.40;;;;;;;0.33;94.34;101592.66;5000177;28;20464;-86
2023/01/28 08:05:17;;;;;;;6.03;5.53;;;;;;;0.48;96.40;101601.00;4997553;28;20511;-85
2023/01/28 08:07:44;;;;;;;9.83;6.53;;;;;;;0.70;94.26;101602.13;4998981;28;20481;-83
2023/01/28 08:10:15;;;;;;;7.10;6.40;;;;;;;0.98;91.98;101603.09;4994038;28;20449;-84
2023/01/28 08:12:51;;;;;;;11.30;7.33;;;;;;;1.03;89.99;101604.69;4997101;28;20455;-82
2023/01/28 08:15:18;;;;;;;7.63;6.77;;;;;;;1.05;90.85;101600.22;4997861;28;20493;-83
2023/01/28 08:17:45;;;;;;;6.43;5.83;;;;;;;1.20;89.77;101606.81;5001278;28;20464;-84
2023/01/28 08:20:12;;;;;;;6.70;6.10;;;;;;;1.23;89.40;101608.47;5004427;28;20483;-84
2023/01/28 08:22:40;;;;;;;7.87;7.20;;;;;;;1.28;90.47;101607.41;5025453;28;20466;-89
2023/01/28 08:25:07;;;;;;;7.00;5.67;;;;;;;1.28;90.95;101617.09;4999275;28;20465;-88
2023/01/28 08:27:34;;;;;;;12.53;6.23;;;;;;;1.41;87.24;101615.81;4998140;28;20484;-89
2023/01/28 08:30:01;;;;;;;6.30;5.23;;;;;;;1.52;86.34;101627.81;5015929;28;20471;-85
2023/01/28 08:32:28;;;;;;;5.77;4.87;;;;;;;1.49;88.35;101631.38;5004547;28;20515;-85
2023/01/28 08:34:55;;;;;;;6.77;6.07;;;;;;;1.62;86.85;101629.22;4994108;28;20459;-85
2023/01/28 08:37:22;;;;;;;10.50;6.00;;;;;;;1.46;85.29;101632.34;4994866;28;20500;-86
2023/01/28 08:39:57;;;;;;;6.17;5.57;;;;;;;1.40;85.98;101639.59;5001626;28;20452;-86
2023/01/28 08:42:24;;;;;;;7.00;5.63;;;;;;;1.58;86.24;101649.56;5003861;28;20494;-85
2023/01/28 08:44:50;;;;;;;6.70;6.00;;;;;;;1.61;85.87;101656.50;4995598;28;20451;-87
2023/01/28 08:47:17;;;;;;;7.27;5.80;;;;;;;1.46;85.25;101652.59;4996067;28;20508;-84
2023/01/28 08:49:45;;;;;;;6.00;5.40;;;;;;;1.57;84.29;101658.38;4995879;28;20532;-83
2023/01/28 08:52:12;;;;;;;11.80;7.07;;;;;;;0.72;87.14;101665.28;5003269;28;20480;-86
2023/01/28 08:54:39;;;;;;;6.70;6.00;;;;;;;1.21;96.49;101666.47;5008292;28;20779;-82
2023/01/28 08:57:07;;;;;;;8.63;5.27;;;;;;;1.03;90.46;101665.25;5004029;28;20479;-80
2023/01/28 08:59:33;;;;;;;6.40;5.63;;;;;;;0.86;85.99;101676.28;5007523;28;20494;-81
2023/01/28 09:02:00;;;;;;;5.93;5.23;;;;;;;0.52;86.92;101678.97;5005840;28;20506;-81
2023/01/28 09:04:27;;;;;;;7.87;6.47;;;;;;;0.61;87.08;101686.63;5012517;28;20458;-80
2023/01/28 09:06:54;;;;;;;6.60;5.43;;;;;;;0.80;87.31;101684.34;5004564;28;20588;-80
2023/01/28 09:09:20;;;;;;;8.70;7.80;;;;;;;1.00;86.81;101690.81;5003808;28;20463;-80
2023/01/28 09:11:47;;;;;;;7.33;6.33;;;;;;;0.83;87.54;101678.97;5015578;28;20476;-80
2023/01/28 09:14:15;;;;;;;6.20;5.63;;;;;;;0.89;87.34;101689.34;5008869;28;20984;-80
2023/01/28 09:16:42;;;;;;;6.13;5.60;;;;;;;0.60;87.75;101687.53;5005269;28;20555;-80
2023/01/28 09:19:08;;;;;;;6.80;6.10;;;;;;;0.68;88.09;101700.50;5005870;28;20503;-83
2023/01/28 09:21:35;;;;;;;8.70;7.00;;;;;;;1.04;88.03;101700.34;5003891;28;20661;-81
2023/01/28 09:24:02;;;;;;;7.30;6.60;;;;;;;1.41;87.55;101689.59;4999832;28;20467;-85
2023/01/28 09:26:28;;;;;;;8.47;7.07;;;;;;;1.24;86.16;101697.16;5003950;28;21193;-84
2023/01/28 09:28:55;;;;;;;7.90;7.20;;;;;;;0.86;86.73;101701.75;4989335;28;20489;-85
2023/01/28 09:31:23;;;;;;;7.87;6.50;;;;;;;1.01;86.84;101714.47;5000685;28;20467;-84
2023/01/28 09:33:55;;;;;;;7.83;7.03;;;;;;;1.12;86.67;101696.59;5014160;28;20459;-85
2023/01/28 09:36:22;;;;;;;6.90;6.23;;;;;;;1.27;86.05;101703.19;5010897;28;20475;-87
2023/01/28 09:38:49;;;;;;;8.80;7.17;;;;;;;0.95;85.25;101717.28;5004600;28;20517;-84
2023/01/28 09:41:24;;;;;;;10.57;7.30;;;;;;;0.73;85.64;101709.97;5011621;28;20498;-84
2023/01/28 09:44:03;;;;;;;8.20;7.40;;;;;;;0.33;89.00;101713.66;4999462;28;20917;-84
2023/01/28 09:46:32;;;;;;;10.27;9.10;;;;;;;0.72;88.33;101720.53;4991928;28;20858;-84
2023/01/28 09:49:01;;;;;;;9.70;8.57;;;;;;;1.05;88.24;101724.00;4998855;28;20492;-83
2023/01/28 09:51:32;;;;;;;8.93;8.13;;;;;;;1.06;86.65;101735.41;4998877;28;20513;-83
2023/01/28 09:54:03;;;;;;;7.70;7.00;;;;;;;1.27;84.97;101733.97;5008793;28;20468;-83
2023/01/28 09:56:32;;;;;;;7.20;6.60;;;;;;;1.49;82.57;101723.63;5007506;28;20489;-83
2023/01/28 09:59:00;;;;;;;8.30;7.50;;;;;;;1.46;82.09;101719.31;5002797;28;21039;-83
2023/01/28 10:01:38;;;;;;;11.20;7.50;;;;;;;1.30;84.04;101712.75;5003980;28;20499;-83
2023/01/28 10:04:15;;;;;;;7.73;6.70;;;;;;;1.04;84.02;101713.53;5010261;28;20522;-84
2023/01/28 10:06:45;;;;;;;9.67;7.10;;;;;;;1.21;84.24;101719.16;5009215;28;20508;-83
2023/01/28 10:09:22;;;;;;;7.83;7.10;;;;;;;0.89;84.67;101712.19;5004323;28;20506;-83
2023/01/28 10:12:01;;;;;;;7.03;6.40;;;;;;;0.63;85.09;101700.59;5010717;28;20547;-85
2023/01/28 10:14:39;;;;;;;7.60;6.90;;;;;;;1.12;84.27;101699.22;5017902;28;21022;-84
2023/01/28 10:17:13;;;;;;;6.80;6.20;;;;;;;0.59;84.72;101711.25;5022493;28;20483;-84
2023/01/28 10:19:41;;;;;;;10.33;7.60;;;;;;;1.02;82.78;101703.03;5007614;28;20482;-84
2023/01/28 10:22:14;;;;;;;10.30;6.67;;;;;;;1.01;82.62;101703.94;5002909;28;20488;-85
2023/01/28 10:24:45;;;;;;;6.43;5.73;;;;;;;1.12;83.72;101699.22;5003502;28;20444;-84
2023/01/28 10:27:13;;;;;;;6.30;5.60;;;;;;;1.92;81.52;101701.19;4984135;28;20480;-84
2023/01/28 10:29:42;;;;;;;9.40;7.07;;;;;;;1.73;78.32;101706.19;4983972;28;20445;-87
2023/01/28 10:32:17;;;;;;;6.27;5.77;;;;;;;1.17;82.31;101712.28;5017811;28;21169;-84
2023/01/28 10:34:44;;;;;;;9.73;7.43;;;;;;;1.23;83.21;101716.50;5022453;28;20934;-83
2023/01/28 10:37:13;;;;;;;8.73;7.83;;;;;;;1.43;81.41;101705.38;5016525;28;20954;-83
2023/01/28 10:39:40;;;;;;;6.80;6.10;;;;;;;0.67;83.52;101707.50;4991668;28;20548;-84
2023/01/28 10:42:17;;;;;;;7.73;6.70;;;;;;;0.65;84.19;101708.47;5002956;28;20508;-83
2023/01/28 10:44:44;;;;;;;8.00;6.43;;;;;;;0.95;84.09;101719.91;4998680;28;20459;-87
2023/01/28 10:47:17;;;;;;;7.07;6.37;;;;;;;0.75;82.88;101721.31;5002914;28;20511;-89
2023/01/28 10:49:48;;;;;;;9.73;7.03;;;;;;;0.80;85.83;101729.09;5001692;28;20483;-87
2023/01/28 10:52:15;;;;;;;6.53;5.97;;;;;;;1.16;84.78;101733.38;5004384;28;20483;-86
2023/01/28 10:54:42;;;;;;;6.90;6.20;;;;;;;1.24;82.54;101726.13;5015327;28;20459;-87
2023/01/28 10:57:12;;;;;;;7.47;5.90;;;;;;;0.94;83.88;101729.59;4999851;28;20471;-86
2023/01/28 10:59:40;;;;;;;6.03;5.53;;;;;;;0.74;84.72;101722.22;4980005;28;20492;-83
2023/01/28 11:02:24;;;;;;;10.60;6.20;;;;;;;1.27;83.07;101728.69;4977288;28;20481;-87
2023/01/28 11:05:01;;;;;;;8.27;6.30;;;;;;;1.38;80.80;101723.94;4976159;28;20457;-81
2023/01/28 11:07:28;;;;;;;8.47;7.40;;;;;;;1.50;78.87;101723.59;4980718;28;20491;-83
2023/01/28 11:09:55;;;;;;;7.57;6.37;;;;;;;1.59;78.78;101726.84;4981241;28;20448;-83
2023/01/28 11:12:23;;;;;;;7.03;6.30;;;;;;;1.96;77.75;101730.97;4981149;28;20507;-83
2023/01/28 11:14:51;;;;;;;7.00;6.30;;;;;;;2.32;74.70;101725.44;4978777;28;20910;-85
2023/01/28 11:17:21;;;;;;;7.80;7.20;;;;;;;1.83;74.52;101725.25;4972948;28;20465;-81
2023/01/28 11:19:48;;;;;;;7.80;7.00;;;;;;;1.45;78.43;101716.72;4976302;28;20519;-79
2023/01/28 11:22:23;;;;;;;7.60;7.00;;;;;;;1.18;78.15;101718.41;4977299;28;20480;-81
2023/01/28 11:24:50;;;;;;;8.10;6.73;;;;;;;1.28;77.11;101725.13;4980346;28;20504;-81
2023/01/28 11:27:18;;;;;;;8.30;7.37;;;;;;;0.86;81.19;101709.63;4978947;28;20801;-81
2023/01/28 11:29:45;;;;;;;7.50;6.90;;;;;;;1.72;78.50;101706.25;4977866;28;20500;-84
2023/01/28 11:32:21;;;;;;;7.20;6.60;;;;;;;2.02;75.97;101702.63;4983192;28;21065;-81
2023/01/28 11:34:51;;;;;;;7.60;6.80;;;;;;;1.84;75.55;101706.72;4991978;28;20495;-87
2023/01/28 11:37:21;;;;;;;8.60;7.73;;;;;;;1.36;77.50;101694.16;4982261;28;20499;-80
2023/01/28 11:39:48;;;;;;;7.07;6.37;;;;;;;1.93;75.70;101700.31;4985305;28;20504;-83
2023/01/28 11:42:18;;;;;;;8.00;7.30;;;;;;;1.67;76.42;101690.59;4979889;28;20512;-85
2023/01/28 11:44:45;;;;;;;7.97;7.27;;;;;;;2.08;74.09;101693.66;4990151;28;20463;-85
2023/01/28 11:47:29;;;;;;;8.27;7.53;;;;;;;1.99;74.43;101684.25;4986479;28;20484;-86
2023/01/28 11:50:10;;;;;;;8.77;7.90;;;;;;;2.52;73.54;101672.81;4983515;28;20464;-85
2023/01/28 11:52:45;;;;;;;7.83;7.03;;;;;;;4.21;68.41;101672.50;4982040;28;20477;-86
2023/01/28 11:55:22;;;;;;;8.97;7.20;;;;;;;4.51;59.97;101659.72;4982940;28;20498;-85
2023/01/28 11:57:55;;;;;;;7.37;6.60;;;;;;;2.40;66.36;101666.19;4989897;28;20503;-83
2023/01/28 12:00:31;;;;;;;7.83;7.23;;;;;;;2.97;69.37;101656.22;4996382;28;20468;-86
2023/01/28 12:03:11;;;;;;;7.33;6.73;;;;;;;4.53;61.75;101650.81;5000988;28;20460;-86